Time;durP1;ratioP1;P1;durP2;ratioP2;P2;SDS_P1;SDS_P2;PMS_P1;PMS_P2;Temp;Humidity;BMP_temperature;BMP_pressure;BME280_temperature;BME280_humidity;BME280_pressure;Samples;Min_cycle;Max_cycle;Signal;HPM_P1;HPM_P2
2023/08/18 00:01:11;;;;;;;0.40;0.40;;;17.20;99.90;;;;;;5133255;27;20620;-87
2023/08/18 00:03:42;;;;;;;1.30;0.30;;;17.30;99.90;;;;;;5131650;27;20216;-86
2023/08/18 00:06:13;;;;;;;2.10;0.38;;;17.40;99.90;;;;;;5132279;27;20254;-86
2023/08/18 00:08:44;;;;;;;0.55;0.40;;;17.60;99.90;;;;;;5132953;27;20237;-86
2023/08/18 00:11:18;;;;;;;2.55;0.40;;;17.70;99.90;;;;;;5135783;27;20198;-87
2023/08/18 00:13:49;;;;;;;1.00;0.52;;;17.90;99.90;;;;;;5137869;27;20256;-86
2023/08/18 00:16:20;;;;;;;0.52;0.30;;;18.00;99.90;;;;;;5132479;27;20564;-87
2023/08/18 00:18:51;;;;;;;0.50;0.43;;;18.00;99.90;;;;;;5132665;27;20198;-88
2023/08/18 00:21:21;;;;;;;0.50;0.25;;;18.00;99.90;;;;;;5132916;27;20225;-88
2023/08/18 00:23:52;;;;;;;0.40;0.40;;;18.10;99.90;;;;;;5132337;27;20208;-86
2023/08/18 00:26:26;;;;;;;0.40;0.40;;;18.00;99.90;;;;;;5132287;27;20198;-86
2023/08/18 00:28:57;;;;;;;0.65;0.30;;;18.10;99.90;;;;;;5137844;27;20736;-86
2023/08/18 00:31:29;;;;;;;1.05;0.40;;;18.00;99.90;;;;;;5153139;27;20294;-87
2023/08/18 00:33:59;;;;;;;0.65;0.30;;;17.90;99.90;;;;;;5133747;27;20228;-87
2023/08/18 00:36:30;;;;;;;1.73;0.50;;;18.00;99.90;;;;;;5143660;27;20199;-86
2023/08/18 00:39:01;;;;;;;0.70;0.38;;;18.00;99.90;;;;;;5132269;27;20284;-87
2023/08/18 00:41:35;;;;;;;0.40;0.40;;;18.10;99.90;;;;;;5135461;27;20660;-86
2023/08/18 00:44:05;;;;;;;1.35;0.77;;;18.00;99.90;;;;;;5133325;27;20228;-86
2023/08/18 00:46:38;;;;;;;1.38;0.60;;;17.60;99.90;;;;;;5143186;27;20198;-84
2023/08/18 00:49:10;;;;;;;1.25;0.50;;;17.60;99.90;;;;;;5132593;27;20238;-84
2023/08/18 00:51:43;;;;;;;1.05;0.50;;;17.50;99.90;;;;;;5132464;27;20637;-87
2023/08/18 00:54:15;;;;;;;0.73;0.60;;;17.50;99.90;;;;;;5134422;27;20672;-86
2023/08/18 00:56:48;;;;;;;1.15;0.50;;;17.70;99.90;;;;;;5132547;27;20192;-86
2023/08/18 00:59:20;;;;;;;1.52;0.52;;;17.80;99.90;;;;;;5132103;27;20292;-86
2023/08/18 01:01:52;;;;;;;0.68;0.45;;;17.90;99.90;;;;;;5134892;27;20651;-87
2023/08/18 01:04:23;;;;;;;0.30;0.30;;;17.90;99.90;;;;;;5135547;27;20656;-84
2023/08/18 01:06:54;;;;;;;2.17;0.47;;;17.90;99.90;;;;;;5152960;27;20193;-85
2023/08/18 01:09:25;;;;;;;0.73;0.47;;;17.90;99.90;;;;;;5144319;27;20196;-86
2023/08/18 01:12:09;;;;;;;0.30;0.30;;;17.90;99.90;;;;;;5132010;27;20285;-87
2023/08/18 01:14:48;;;;;;;0.52;0.30;;;17.80;99.90;;;;;;5135523;27;20240;-86
2023/08/18 01:17:28;;;;;;;2.28;0.50;;;17.90;99.90;;;;;;5153113;27;20199;-86
2023/08/18 01:19:59;;;;;;;0.80;0.32;;;18.10;99.90;;;;;;5153057;27;20710;-86
2023/08/18 01:22:30;;;;;;;0.60;0.47;;;18.40;99.90;;;;;;5150699;27;20276;-86
2023/08/18 01:25:06;;;;;;;0.30;0.30;;;18.50;99.90;;;;;;5140786;27;20728;-86
2023/08/18 01:27:37;;;;;;;0.20;0.20;;;18.60;99.90;;;;;;5131423;27;20644;-85
2023/08/18 01:30:09;;;;;;;0.60;0.30;;;18.70;99.90;;;;;;5132730;27;20190;-86
2023/08/18 01:32:47;;;;;;;0.73;0.50;;;18.70;99.90;;;;;;5137468;27;20197;-87
2023/08/18 01:35:19;;;;;;;2.17;0.50;;;18.60;99.90;;;;;;5135952;27;20233;-86
2023/08/18 01:37:52;;;;;;;0.60;0.40;;;18.60;99.90;;;;;;5147155;27;20249;-86
2023/08/18 01:40:28;;;;;;;0.22;0.20;;;18.70;99.90;;;;;;5153927;27;20213;-86
2023/08/18 01:42:59;;;;;;;0.57;0.40;;;18.80;99.90;;;;;;5142219;27;20189;-86
2023/08/18 01:45:30;;;;;;;0.20;0.20;;;18.90;99.70;;;;;;5136416;27;20262;-87
2023/08/18 01:48:02;;;;;;;0.75;0.40;;;18.90;96.60;;;;;;5132319;27;20190;-88
2023/08/18 01:50:33;;;;;;;0.30;0.25;;;18.90;94.00;;;;;;5156748;27;20201;-87
2023/08/18 01:53:04;;;;;;;0.30;0.30;;;19.00;93.80;;;;;;5139854;27;20281;-85
2023/08/18 01:55:37;;;;;;;3.20;0.50;;;19.20;93.00;;;;;;5142506;27;20307;-87
2023/08/18 01:58:08;;;;;;;0.10;0.10;;;19.30;92.50;;;;;;5132825;27;20281;-87
2023/08/18 02:00:40;;;;;;;0.57;0.30;;;19.50;92.30;;;;;;5146207;27;20551;-87
2023/08/18 02:03:10;;;;;;;0.20;0.20;;;19.60;90.60;;;;;;5153644;27;20372;-87
2023/08/18 02:05:44;;;;;;;0.20;0.20;;;19.40;87.80;;;;;;5154407;27;20572;-88
2023/08/18 02:08:15;;;;;;;1.25;0.30;;;19.50;87.40;;;;;;5156843;27;20201;-88
2023/08/18 02:10:48;;;;;;;0.38;0.38;;;19.60;88.90;;;;;;5145360;27;20208;-88
2023/08/18 02:13:19;;;;;;;1.67;1.10;;;19.80;89.50;;;;;;5137875;27;20216;-88
2023/08/18 02:15:50;;;;;;;3.40;1.15;;;19.60;86.90;;;;;;5136133;27;20246;-88
2023/08/18 02:18:21;;;;;;;1.30;1.20;;;19.20;86.30;;;;;;5136353;27;20562;-87
2023/08/18 02:20:58;;;;;;;0.60;0.60;;;19.30;87.50;;;;;;5135893;27;20285;-89
2023/08/18 02:23:29;;;;;;;2.17;0.65;;;19.50;87.30;;;;;;5150241;27;20201;-87
2023/08/18 02:26:10;;;;;;;1.85;1.45;;;19.50;83.80;;;;;;5138511;27;20730;-86
2023/08/18 02:28:40;;;;;;;0.75;0.45;;;19.70;85.70;;;;;;5149938;27;20198;-87
2023/08/18 02:31:11;;;;;;;1.10;0.40;;;19.70;80.80;;;;;;5143516;27;20272;-86
2023/08/18 02:33:42;;;;;;;2.85;0.60;;;19.70;82.80;;;;;;5155241;27;20189;-85
2023/08/18 02:36:13;;;;;;;0.77;0.40;;;19.80;83.00;;;;;;5137813;27;20586;-85
2023/08/18 02:38:44;;;;;;;0.25;0.20;;;19.60;82.20;;;;;;5146214;27;20207;-87
2023/08/18 02:41:18;;;;;;;0.65;0.50;;;19.50;84.30;;;;;;5137138;27;20669;-87
2023/08/18 02:43:50;;;;;;;1.67;0.52;;;19.50;81.90;;;;;;5142348;27;20220;-87
2023/08/18 02:46:21;;;;;;;2.47;0.38;;;19.50;80.60;;;;;;5134224;27;20222;-85
2023/08/18 02:48:52;;;;;;;0.40;0.30;;;19.50;79.90;;;;;;5133874;27;20264;-86
2023/08/18 02:51:22;;;;;;;0.93;0.52;;;19.30;80.20;;;;;;5137751;27;20197;-85
2023/08/18 02:53:53;;;;;;;1.02;0.60;;;19.30;80.50;;;;;;5135622;27;20300;-87
2023/08/18 02:56:26;;;;;;;0.98;0.40;;;19.50;79.70;;;;;;5134378;27;20228;-87
2023/08/18 02:58:58;;;;;;;3.38;0.43;;;19.20;77.80;;;;;;5155153;27;20279;-87
2023/08/18 03:01:29;;;;;;;0.60;0.50;;;19.10;78.80;;;;;;5153847;27;20638;-85
2023/08/18 03:04:00;;;;;;;0.95;0.40;;;19.10;77.10;;;;;;5155986;27;20219;-86
2023/08/18 03:06:31;;;;;;;1.55;0.50;;;19.20;76.10;;;;;;5155556;27;20212;-88
2023/08/18 03:09:02;;;;;;;0.65;0.52;;;19.20;74.30;;;;;;5156715;27;20605;-85
2023/08/18 03:11:34;;;;;;;1.23;0.50;;;19.40;72.30;;;;;;5155082;27;20250;-85
2023/08/18 03:14:07;;;;;;;0.30;0.30;;;19.40;72.10;;;;;;5138259;27;20584;-90
2023/08/18 03:16:38;;;;;;;0.35;0.35;;;19.50;69.60;;;;;;5140689;27;20691;-85
2023/08/18 03:19:09;;;;;;;0.68;0.40;;;19.60;68.80;;;;;;5141478;27;20236;-85
2023/08/18 03:21:42;;;;;;;0.80;0.30;;;19.70;67.50;;;;;;5141966;27;20234;-86
2023/08/18 03:24:14;;;;;;;1.08;0.63;;;19.70;70.40;;;;;;5134399;27;20276;-85
2023/08/18 03:26:46;;;;;;;0.73;0.30;;;19.60;67.70;;;;;;5134304;27;20656;-87
2023/08/18 03:29:17;;;;;;;0.70;0.70;;;19.50;66.70;;;;;;5133691;27;20190;-86
2023/08/18 03:31:48;;;;;;;0.75;0.40;;;19.50;67.90;;;;;;5134485;27;20190;-86
2023/08/18 03:34:19;;;;;;;1.10;0.40;;;19.50;70.10;;;;;;5133988;27;20201;-86
2023/08/18 03:36:50;;;;;;;0.52;0.47;;;19.40;71.20;;;;;;5143655;27;20297;-86
2023/08/18 03:39:20;;;;;;;0.30;0.30;;;19.20;69.80;;;;;;5147708;27;20208;-87
2023/08/18 03:41:54;;;;;;;1.50;0.30;;;19.20;71.50;;;;;;5147188;27;20616;-88
2023/08/18 03:44:25;;;;;;;3.40;0.30;;;19.20;72.90;;;;;;5136965;27;20265;-86
2023/08/18 03:46:59;;;;;;;0.38;0.30;;;19.20;71.50;;;;;;5134488;27;20261;-88
2023/08/18 03:49:30;;;;;;;0.30;0.30;;;19.20;73.30;;;;;;5135170;27;20668;-86
2023/08/18 03:52:02;;;;;;;0.63;0.40;;;19.40;74.20;;;;;;5148591;27;20205;-87
2023/08/18 03:54:33;;;;;;;2.72;0.50;;;19.30;70.40;;;;;;5147913;27;20220;-89
2023/08/18 03:57:06;;;;;;;0.30;0.30;;;19.20;69.50;;;;;;5137105;27;20221;-89
2023/08/18 03:59:37;;;;;;;0.70;0.57;;;19.00;71.40;;;;;;5143016;27;20195;-90
2023/08/18 04:02:08;;;;;;;1.58;0.50;;;18.90;70.40;;;;;;5135400;27;20387;-89
2023/08/18 04:04:39;;;;;;;0.80;0.60;;;18.90;70.40;;;;;;5135208;27;20213;-86
2023/08/18 04:07:09;;;;;;;0.95;0.60;;;18.80;70.00;;;;;;5146704;27;20277;-88
2023/08/18 04:09:40;;;;;;;0.30;0.30;;;18.80;70.50;;;;;;5147904;27;20287;-88
2023/08/18 04:12:13;;;;;;;1.38;0.40;;;18.80;68.30;;;;;;5156809;27;20288;-87
2023/08/18 04:14:44;;;;;;;1.38;0.50;;;18.90;65.90;;;;;;5145635;27;20244;-92
2023/08/18 04:17:15;;;;;;;0.60;0.40;;;18.70;64.90;;;;;;5139963;27;20197;-89
2023/08/18 04:19:47;;;;;;;1.38;0.47;;;18.60;63.80;;;;;;5145166;27;20304;-90
2023/08/18 04:22:18;;;;;;;0.52;0.47;;;18.70;63.00;;;;;;5135498;27;20261;-88
2023/08/18 04:24:49;;;;;;;2.83;0.60;;;18.50;63.40;;;;;;5136792;27;20225;-89
2023/08/18 04:27:22;;;;;;;1.00;0.30;;;18.60;63.70;;;;;;5151293;27;20193;-86
2023/08/18 04:29:54;;;;;;;0.40;0.40;;;18.50;63.30;;;;;;5153783;27;20189;-87
2023/08/18 04:32:24;;;;;;;2.60;0.68;;;18.40;62.20;;;;;;5153762;27;20185;-87
2023/08/18 04:34:55;;;;;;;2.97;0.70;;;18.30;64.20;;;;;;5151979;27;21550;-87
2023/08/18 04:37:26;;;;;;;3.05;0.50;;;18.40;65.10;;;;;;5154155;27;20232;-86
2023/08/18 04:39:57;;;;;;;0.88;0.32;;;18.50;62.20;;;;;;5135301;27;20193;-87
2023/08/18 04:42:31;;;;;;;0.65;0.50;;;18.60;65.30;;;;;;5155318;27;20311;-89
2023/08/18 04:45:02;;;;;;;1.15;0.60;;;18.60;62.90;;;;;;5144005;27;20201;-88
2023/08/18 04:47:33;;;;;;;3.55;0.50;;;18.70;61.70;;;;;;5153882;27;20193;-86
2023/08/18 04:50:04;;;;;;;0.40;0.32;;;18.50;60.40;;;;;;5139772;27;20280;-87
2023/08/18 04:52:35;;;;;;;2.95;0.57;;;18.30;61.20;;;;;;5134421;27;20204;-88
2023/08/18 04:55:06;;;;;;;2.08;0.60;;;18.20;60.20;;;;;;5134277;27;20248;-89
2023/08/18 04:57:40;;;;;;;2.55;0.40;;;18.30;61.10;;;;;;5141235;27;20223;-89
2023/08/18 05:00:13;;;;;;;1.38;0.57;;;18.20;61.00;;;;;;5138390;27;20207;-87
2023/08/18 05:02:43;;;;;;;0.85;0.38;;;18.00;59.70;;;;;;5140367;27;20197;-87
2023/08/18 05:05:14;;;;;;;0.55;0.30;;;18.00;59.50;;;;;;5133552;27;20567;-88
2023/08/18 05:07:45;;;;;;;2.05;0.40;;;17.90;59.70;;;;;;5133217;27;20679;-85
2023/08/18 05:10:16;;;;;;;4.70;0.40;;;17.90;59.40;;;;;;5146370;27;20256;-85
2023/08/18 05:12:50;;;;;;;3.15;0.50;;;18.00;58.70;;;;;;5143665;27;20584;-84
2023/08/18 05:15:22;;;;;;;0.63;0.35;;;18.00;58.70;;;;;;5132940;28;20201;-85
2023/08/18 05:17:53;;;;;;;1.48;0.57;;;17.80;58.60;;;;;;5144664;27;20295;-86
2023/08/18 05:20:23;;;;;;;0.90;0.40;;;17.80;59.90;;;;;;5140705;27;20337;-89
2023/08/18 05:22:55;;;;;;;1.35;0.50;;;17.90;59.90;;;;;;5134151;27;20198;-84
2023/08/18 05:25:26;;;;;;;1.83;0.40;;;17.90;60.80;;;;;;5139143;27;20195;-84
2023/08/18 05:27:59;;;;;;;1.23;0.20;;;17.80;60.00;;;;;;5147656;27;20197;-85
2023/08/18 05:30:30;;;;;;;1.20;0.50;;;17.80;60.90;;;;;;5131877;28;20200;-86
2023/08/18 05:33:01;;;;;;;1.15;0.50;;;17.90;61.70;;;;;;5135179;27;20373;-85
2023/08/18 05:35:32;;;;;;;1.70;0.40;;;18.10;61.90;;;;;;5134103;27;20718;-85
2023/08/18 05:38:04;;;;;;;0.40;0.40;;;18.10;59.80;;;;;;5132995;27;20459;-85
2023/08/18 05:40:34;;;;;;;1.30;0.30;;;18.00;59.70;;;;;;5150751;27;20190;-87
2023/08/18 05:43:08;;;;;;;1.05;0.30;;;17.90;59.10;;;;;;5146824;27;20690;-86
2023/08/18 05:45:39;;;;;;;0.82;0.40;;;17.90;60.80;;;;;;5185312;27;20235;-87
2023/08/18 05:48:12;;;;;;;0.70;0.40;;;18.10;61.40;;;;;;5180959;27;20228;-86
2023/08/18 05:50:43;;;;;;;0.82;0.38;;;18.00;60.70;;;;;;5158813;27;20276;-86
2023/08/18 05:53:14;;;;;;;1.20;0.35;;;18.20;61.90;;;;;;5136765;27;20237;-86
2023/08/18 05:55:46;;;;;;;0.60;0.38;;;18.20;62.70;;;;;;5133281;27;20698;-83
2023/08/18 05:58:19;;;;;;;0.30;0.20;;;18.30;63.30;;;;;;5135321;27;20189;-84
2023/08/18 06:00:52;;;;;;;5.85;0.30;;;18.40;61.90;;;;;;5140181;27;20193;-83
2023/08/18 06:03:23;;;;;;;1.52;0.20;;;18.40;60.60;;;;;;5156718;27;20193;-84
2023/08/18 06:05:54;;;;;;;0.30;0.25;;;18.50;60.40;;;;;;5156479;27;20288;-86
2023/08/18 06:08:24;;;;;;;1.35;0.20;;;18.50;60.90;;;;;;5156167;27;20204;-83
2023/08/18 06:10:56;;;;;;;0.15;0.10;;;18.40;61.30;;;;;;5156949;27;20197;-83
2023/08/18 06:13:28;;;;;;;0.63;0.20;;;18.50;62.00;;;;;;5156136;27;20224;-85
2023/08/18 06:15:59;;;;;;;0.57;0.32;;;18.50;61.50;;;;;;5155857;27;20217;-85
2023/08/18 06:18:30;;;;;;;1.02;0.30;;;18.50;62.30;;;;;;5154660;27;20276;-84
2023/08/18 06:21:01;;;;;;;1.17;0.30;;;18.60;61.90;;;;;;5151609;27;20313;-84
2023/08/18 06:23:32;;;;;;;2.70;0.30;;;18.60;61.10;;;;;;5143780;27;20186;-85
2023/08/18 06:26:03;;;;;;;0.20;0.20;;;18.50;60.80;;;;;;5135979;27;20281;-84
2023/08/18 06:28:36;;;;;;;0.20;0.20;;;18.50;61.50;;;;;;5145378;27;20678;-84
2023/08/18 06:31:10;;;;;;;0.30;0.30;;;18.60;61.00;;;;;;5157332;27;20232;-86
2023/08/18 06:33:41;;;;;;;1.88;0.20;;;18.50;61.50;;;;;;5157645;27;20234;-83
2023/08/18 06:36:12;;;;;;;0.43;0.30;;;18.50;61.50;;;;;;5173371;27;20217;-84
2023/08/18 06:38:43;;;;;;;1.80;0.40;;;18.50;62.50;;;;;;5171103;27;20201;-86
2023/08/18 06:41:13;;;;;;;0.80;0.20;;;18.40;62.20;;;;;;5177361;27;20204;-84
2023/08/18 06:43:46;;;;;;;0.43;0.22;;;18.20;62.60;;;;;;5190593;27;20196;-86
2023/08/18 06:46:17;;;;;;;0.30;0.20;;;18.10;62.70;;;;;;5183685;27;20279;-86
2023/08/18 06:48:48;;;;;;;1.00;0.40;;;17.90;65.20;;;;;;5177329;27;20200;-86
2023/08/18 06:51:19;;;;;;;0.70;0.30;;;17.90;64.80;;;;;;5179042;27;20231;-85
2023/08/18 06:53:51;;;;;;;2.05;0.50;;;17.80;65.00;;;;;;5177253;27;20248;-86
2023/08/18 06:56:22;;;;;;;0.52;0.43;;;17.50;64.50;;;;;;5159022;27;20227;-86
2023/08/18 06:58:55;;;;;;;1.23;0.45;;;17.30;66.90;;;;;;5153352;27;20708;-84
2023/08/18 07:01:26;;;;;;;2.60;0.30;;;17.20;66.80;;;;;;5156201;27;20229;-85
2023/08/18 07:03:57;;;;;;;0.40;0.30;;;17.20;66.00;;;;;;5155879;27;20719;-85
2023/08/18 07:06:28;;;;;;;2.08;0.20;;;17.10;66.60;;;;;;5140421;27;20236;-85
2023/08/18 07:08:59;;;;;;;0.65;0.50;;;17.00;67.30;;;;;;5134944;27;20301;-85
2023/08/18 07:11:32;;;;;;;0.95;0.50;;;17.00;67.60;;;;;;5146728;27;20194;-86
2023/08/18 07:14:05;;;;;;;1.20;0.50;;;17.00;68.70;;;;;;5143323;27;20236;-84
2023/08/18 07:16:36;;;;;;;0.40;0.40;;;16.90;69.40;;;;;;5134799;27;20575;-86
2023/08/18 07:19:07;;;;;;;1.08;0.68;;;16.90;69.80;;;;;;5134812;27;20273;-86
2023/08/18 07:21:38;;;;;;;0.77;0.52;;;16.90;68.90;;;;;;5136211;27;20292;-85
2023/08/18 07:24:10;;;;;;;0.85;0.60;;;16.70;69.40;;;;;;5135388;27;20597;-85
2023/08/18 07:26:40;;;;;;;2.47;0.47;;;16.60;68.30;;;;;;5135309;27;20635;-84
2023/08/18 07:29:14;;;;;;;1.17;0.40;;;16.60;70.10;;;;;;5135447;27;20649;-84
2023/08/18 07:31:45;;;;;;;1.00;0.35;;;16.50;68.80;;;;;;5103468;27;20193;-84
2023/08/18 07:34:16;;;;;;;4.32;0.50;;;16.50;68.90;;;;;;5152658;27;20225;-85
2023/08/18 07:36:49;;;;;;;1.17;0.40;;;16.50;68.80;;;;;;5154834;27;20614;-85
2023/08/18 07:42:52;;;;;;;1.83;0.50;;;16.40;70.60;;;;;;5120329;27;20741;-85
2023/08/18 07:45:26;;;;;;;0.70;0.40;;;16.30;69.70;;;;;;5167339;27;20205;-85
2023/08/18 07:47:57;;;;;;;0.60;0.40;;;16.20;70.00;;;;;;5134673;27;20212;-84
2023/08/18 07:50:28;;;;;;;1.70;0.80;;;16.20;71.60;;;;;;5143079;27;20194;-84
2023/08/18 07:52:59;;;;;;;1.08;0.50;;;16.20;72.30;;;;;;5145381;27;20202;-85
2023/08/18 07:55:30;;;;;;;1.42;0.70;;;16.10;71.30;;;;;;5152370;27;20691;-84
2023/08/18 07:58:01;;;;;;;0.43;0.43;;;16.00;73.10;;;;;;5147836;27;20291;-85
2023/08/18 08:00:36;;;;;;;1.52;0.68;;;16.00;73.50;;;;;;5141461;27;20238;-86
2023/08/18 08:05:59;;;;;;;2.05;0.90;;;15.90;75.30;;;;;;5134403;27;20194;-88
2023/08/18 08:08:30;;;;;;;1.50;0.70;;;15.90;75.50;;;;;;5145642;27;20321;-86
2023/08/18 08:11:04;;;;;;;1.23;0.55;;;15.90;76.50;;;;;;5134390;27;20194;-85
2023/08/18 08:13:37;;;;;;;0.63;0.50;;;15.70;77.80;;;;;;5133081;27;20227;-85
2023/08/18 08:16:11;;;;;;;2.03;0.60;;;15.70;79.20;;;;;;5133278;27;20194;-87
2023/08/18 08:18:43;;;;;;;0.55;0.55;;;15.60;79.10;;;;;;5132633;27;20228;-87
2023/08/18 08:21:14;;;;;;;1.48;0.80;;;15.60;80.00;;;;;;5147057;27;20221;-85
2023/08/18 08:23:46;;;;;;;1.98;0.90;;;15.50;80.80;;;;;;5149304;27;20331;-86
2023/08/18 08:26:17;;;;;;;0.90;0.70;;;15.50;81.10;;;;;;5132809;27;20315;-85
2023/08/18 08:28:48;;;;;;;1.25;0.60;;;15.50;81.50;;;;;;5140321;27;20280;-86
2023/08/18 08:31:21;;;;;;;3.13;2.25;;;15.50;81.70;;;;;;5137196;27;20622;-86
2023/08/18 08:33:52;;;;;;;5.70;4.03;;;15.50;82.70;;;;;;5132479;27;20331;-85
2023/08/18 08:36:25;;;;;;;1.85;1.00;;;15.50;83.20;;;;;;5132269;27;20198;-85
2023/08/18 08:38:56;;;;;;;0.80;0.70;;;15.50;83.00;;;;;;5132425;27;20269;-86
2023/08/18 08:41:29;;;;;;;1.08;0.70;;;15.40;85.10;;;;;;5131201;27;20198;-85
2023/08/18 08:44:00;;;;;;;1.13;0.80;;;15.40;85.10;;;;;;5131908;27;20197;-84
2023/08/18 08:46:34;;;;;;;1.48;0.70;;;15.40;84.70;;;;;;5131651;27;20200;-84
2023/08/18 08:49:08;;;;;;;1.42;1.00;;;15.40;85.30;;;;;;5148447;27;20276;-85
2023/08/18 08:51:44;;;;;;;3.33;1.30;;;15.30;86.80;;;;;;5132428;27;20620;-85
2023/08/18 08:54:16;;;;;;;1.70;0.80;;;15.40;87.30;;;;;;5132044;27;20270;-86
2023/08/18 08:56:50;;;;;;;0.77;0.70;;;15.30;86.90;;;;;;5146339;27;20212;-84
2023/08/18 08:59:21;;;;;;;2.67;1.23;;;15.20;89.70;;;;;;5136579;27;20212;-84
2023/08/18 09:01:55;;;;;;;2.22;0.90;;;15.20;89.50;;;;;;5132526;27;20205;-84
2023/08/18 09:04:26;;;;;;;3.50;2.42;;;15.20;89.70;;;;;;5144734;27;20711;-86
2023/08/18 09:06:57;;;;;;;6.63;3.58;;;15.20;90.30;;;;;;5153634;27;20660;-84
2023/08/18 09:09:28;;;;;;;1.70;1.13;;;15.10;90.80;;;;;;5136568;27;20190;-85
2023/08/18 09:12:06;;;;;;;2.70;1.73;;;15.10;90.90;;;;;;5131650;27;20225;-84
2023/08/18 09:14:38;;;;;;;1.88;1.17;;;15.20;91.20;;;;;;5132896;27;20648;-83
2023/08/18 09:17:11;;;;;;;2.28;1.58;;;15.10;91.00;;;;;;5136962;27;20680;-84
2023/08/18 09:19:44;;;;;;;3.80;1.20;;;15.10;91.70;;;;;;5139863;27;20217;-83
2023/08/18 09:22:18;;;;;;;3.30;2.78;;;15.10;91.60;;;;;;5139413;27;20360;-83
2023/08/18 09:24:52;;;;;;;3.63;2.25;;;15.10;92.00;;;;;;5118810;27;20285;-80
2023/08/18 09:27:23;;;;;;;3.15;2.00;;;14.90;92.20;;;;;;5139685;27;20213;-84
2023/08/18 09:29:55;;;;;;;3.58;2.80;;;14.70;93.10;;;;;;5135972;27;20246;-85
2023/08/18 09:32:29;;;;;;;1.92;0.93;;;14.70;93.20;;;;;;5146645;27;20203;-83
2023/08/18 09:35:00;;;;;;;2.40;0.95;;;14.70;93.90;;;;;;5145862;27;20197;-84
2023/08/18 09:37:34;;;;;;;1.45;1.05;;;14.80;93.90;;;;;;5156425;27;20768;-84
2023/08/18 09:40:07;;;;;;;0.55;0.55;;;14.60;94.30;;;;;;5121860;27;20666;-85
2023/08/18 09:42:38;;;;;;;0.50;0.50;;;14.60;94.20;;;;;;5155382;27;20659;-82
2023/08/18 09:45:10;;;;;;;0.40;0.40;;;14.50;94.70;;;;;;5174627;27;20196;-83
2023/08/18 09:47:45;;;;;;;2.00;0.90;;;14.50;94.90;;;;;;5155003;27;20213;-84
2023/08/18 09:50:19;;;;;;;2.25;0.40;;;14.40;95.40;;;;;;5140299;27;20293;-84
2023/08/18 09:52:54;;;;;;;3.38;1.27;;;14.30;96.20;;;;;;5134720;27;20233;-85
2023/08/18 09:55:32;;;;;;;0.65;0.50;;;14.40;96.40;;;;;;5143155;27;20185;-84
2023/08/18 09:58:11;;;;;;;1.48;1.33;;;14.40;96.80;;;;;;5157211;27;20313;-84
2023/08/18 10:00:45;;;;;;;1.05;0.60;;;14.40;97.40;;;;;;5156272;27;20615;-85
2023/08/18 10:03:20;;;;;;;2.75;0.63;;;14.40;97.40;;;;;;5147090;27;20190;-85
2023/08/18 10:05:52;;;;;;;0.50;0.50;;;14.40;97.20;;;;;;5136901;27;20284;-85
2023/08/18 10:08:24;;;;;;;1.08;0.60;;;14.50;97.70;;;;;;5136050;27;20190;-84
2023/08/18 10:10:58;;;;;;;1.08;0.70;;;14.50;98.00;;;;;;5135708;27;20276;-86
2023/08/18 10:13:31;;;;;;;1.30;1.00;;;14.50;97.90;;;;;;5137333;27;20206;-85
2023/08/18 10:16:07;;;;;;;1.35;1.25;;;14.50;98.20;;;;;;5136031;27;20206;-85
2023/08/18 10:18:39;;;;;;;0.50;0.50;;;14.40;98.50;;;;;;5136076;27;20217;-87
2023/08/18 10:21:13;;;;;;;1.35;0.60;;;14.40;98.90;;;;;;5137393;27;20308;-85
2023/08/18 10:23:46;;;;;;;1.45;0.65;;;14.40;99.40;;;;;;5146700;27;20531;-85
2023/08/18 10:26:17;;;;;;;1.10;0.50;;;14.40;99.30;;;;;;5154218;27;20246;-86
2023/08/18 10:28:50;;;;;;;0.77;0.60;;;14.40;99.90;;;;;;5156457;27;20276;-85
2023/08/18 10:31:22;;;;;;;1.60;0.90;;;14.40;99.70;;;;;;5153363;27;20218;-86
2023/08/18 10:33:57;;;;;;;0.70;0.70;;;14.30;99.80;;;;;;5151263;27;20213;-85
2023/08/18 10:36:33;;;;;;;0.82;0.60;;;14.40;99.90;;;;;;5157788;27;20222;-86
2023/08/18 10:39:26;;;;;;;0.60;0.50;;;14.40;99.90;;;;;;5147853;27;20448;-86
2023/08/18 10:42:13;;;;;;;0.50;0.40;;;14.40;99.90;;;;;;5145787;27;20660;-86
2023/08/18 10:45:00;;;;;;;2.45;0.75;;;14.40;99.90;;;;;;5155952;27;20208;-84
2023/08/18 10:47:42;;;;;;;1.25;0.70;;;14.40;99.90;;;;;;5154359;27;20193;-86
2023/08/18 10:50:18;;;;;;;1.42;0.85;;;14.30;99.90;;;;;;5158907;27;20242;-86
2023/08/18 10:52:53;;;;;;;1.95;1.73;;;14.40;99.90;;;;;;5157597;27;20208;-86
2023/08/18 10:55:24;;;;;;;1.00;0.90;;;14.30;99.90;;;;;;5155087;27;20205;-87
2023/08/18 10:57:55;;;;;;;1.45;0.80;;;14.20;99.90;;;;;;5145935;27;20225;-86
2023/08/18 11:00:26;;;;;;;0.90;0.60;;;14.20;99.90;;;;;;5137436;27;20221;-86
2023/08/18 11:02:57;;;;;;;0.70;0.50;;;14.20;99.90;;;;;;5151861;27;20186;-85
2023/08/18 11:05:35;;;;;;;1.95;0.60;;;14.20;99.90;;;;;;5135218;27;20617;-85
2023/08/18 11:08:09;;;;;;;0.50;0.50;;;14.30;99.90;;;;;;5135108;27;20206;-86
2023/08/18 11:10:44;;;;;;;0.93;0.43;;;14.20;99.90;;;;;;5146028;27;20580;-86
2023/08/18 11:13:24;;;;;;;1.05;0.50;;;14.10;99.90;;;;;;5139837;27;20686;-86
2023/08/18 11:15:55;;;;;;;0.40;0.30;;;14.10;99.90;;;;;;5136425;27;20250;-84
2023/08/18 11:18:28;;;;;;;0.57;0.38;;;14.10;99.90;;;;;;5135943;27;20275;-86
2023/08/18 11:21:03;;;;;;;0.40;0.40;;;14.10;99.90;;;;;;5135637;27;20233;-84
2023/08/18 11:23:34;;;;;;;0.77;0.50;;;14.00;99.90;;;;;;5133858;27;20234;-85
2023/08/18 11:26:06;;;;;;;0.80;0.52;;;14.00;99.90;;;;;;5133139;27;20229;-85
2023/08/18 11:28:37;;;;;;;0.60;0.30;;;14.00;99.90;;;;;;5134120;27;20550;-86
2023/08/18 11:31:10;;;;;;;0.90;0.50;;;14.00;99.90;;;;;;5137517;27;20201;-83
2023/08/18 11:33:45;;;;;;;0.95;0.30;;;14.00;99.90;;;;;;5134225;27;20285;-84
2023/08/18 11:36:18;;;;;;;0.50;0.40;;;13.90;99.90;;;;;;5134754;27;20197;-86
2023/08/18 11:38:52;;;;;;;1.73;0.50;;;13.80;99.90;;;;;;5151261;27;20220;-85
2023/08/18 11:41:23;;;;;;;0.75;0.40;;;13.90;99.90;;;;;;5145854;27;20631;-85
2023/08/18 11:43:57;;;;;;;0.70;0.60;;;14.00;99.90;;;;;;5119577;27;20197;-87
2023/08/18 11:46:28;;;;;;;1.83;0.60;;;14.00;99.90;;;;;;5146904;27;20194;-87
2023/08/18 11:49:02;;;;;;;0.90;0.55;;;13.90;99.90;;;;;;5132759;27;20189;-86
2023/08/18 11:51:35;;;;;;;1.17;0.40;;;13.80;99.90;;;;;;5139896;27;20197;-85
2023/08/18 11:54:15;;;;;;;0.70;0.40;;;13.80;99.90;;;;;;5155267;27;20209;-85
2023/08/18 11:56:46;;;;;;;1.33;0.40;;;13.80;99.90;;;;;;5142423;27;20717;-84
2023/08/18 11:59:22;;;;;;;1.25;0.40;;;13.80;99.90;;;;;;5133916;27;21796;-87
2023/08/18 12:01:57;;;;;;;1.15;0.38;;;13.70;99.90;;;;;;5134231;27;20197;-86
2023/08/18 12:04:29;;;;;;;1.63;0.40;;;13.70;99.90;;;;;;5138670;27;20208;-85
2023/08/18 12:07:17;;;;;;;0.95;0.47;;;13.70;99.90;;;;;;5136359;27;20691;-84
2023/08/18 12:09:48;;;;;;;2.03;0.63;;;13.70;99.90;;;;;;5136637;27;20194;-84
2023/08/18 12:12:19;;;;;;;1.52;0.40;;;13.80;99.90;;;;;;5143181;27;20574;-88
2023/08/18 12:14:50;;;;;;;2.95;0.82;;;13.80;99.90;;;;;;5143499;27;20215;-87
2023/08/18 12:17:21;;;;;;;0.70;0.40;;;13.80;99.90;;;;;;5135799;27;20198;-84
2023/08/18 12:19:52;;;;;;;3.58;0.50;;;13.70;99.90;;;;;;5140876;27;20222;-84
2023/08/18 12:22:25;;;;;;;1.33;0.40;;;13.80;99.90;;;;;;5137401;27;20305;-85
2023/08/18 12:24:59;;;;;;;2.35;0.60;;;13.70;99.90;;;;;;5137200;27;20648;-86
2023/08/18 12:27:30;;;;;;;1.80;0.55;;;13.70;99.90;;;;;;5132523;27;20562;-85
2023/08/18 12:30:02;;;;;;;0.57;0.40;;;13.80;99.90;;;;;;5137361;27;20266;-87
2023/08/18 12:32:33;;;;;;;0.80;0.45;;;13.70;99.90;;;;;;5135301;27;20617;-85
2023/08/18 12:35:08;;;;;;;4.38;0.60;;;13.60;99.90;;;;;;5137395;27;20193;-83
2023/08/18 12:37:43;;;;;;;0.43;0.38;;;13.60;99.90;;;;;;5138591;27;20229;-87
2023/08/18 12:40:22;;;;;;;1.85;0.50;;;13.60;99.90;;;;;;5141426;27;20202;-92
2023/08/18 12:42:53;;;;;;;1.67;0.40;;;13.60;99.90;;;;;;5148998;27;20217;-88
2023/08/18 12:45:25;;;;;;;2.10;0.50;;;13.60;99.90;;;;;;5152526;27;20201;-87
2023/08/18 12:47:59;;;;;;;1.35;0.47;;;13.60;99.90;;;;;;5139958;27;20246;-87
2023/08/18 12:50:36;;;;;;;0.73;0.40;;;13.60;99.90;;;;;;5142169;27;20381;-87
2023/08/18 12:53:22;;;;;;;2.35;0.63;;;13.60;99.90;;;;;;5139525;27;20241;-87
2023/08/18 12:55:54;;;;;;;0.95;0.30;;;13.60;99.70;;;;;;5146592;27;20224;-89
2023/08/18 12:58:27;;;;;;;0.70;0.40;;;13.60;99.90;;;;;;5167381;27;20213;-87
2023/08/18 13:01:06;;;;;;;4.32;0.50;;;13.60;99.90;;;;;;5161122;27;20233;-88
2023/08/18 13:03:41;;;;;;;1.42;0.60;;;13.60;99.90;;;;;;5130180;27;20197;-88
2023/08/18 13:06:13;;;;;;;1.75;0.50;;;13.60;99.90;;;;;;5148508;27;20276;-89
2023/08/18 13:08:48;;;;;;;3.30;0.38;;;13.50;99.90;;;;;;5143893;27;20215;-87
2023/08/18 13:11:19;;;;;;;1.77;0.38;;;13.50;99.90;;;;;;5157729;27;20193;-86
2023/08/18 13:13:51;;;;;;;2.92;0.43;;;13.50;99.90;;;;;;5144652;27;20498;-86
2023/08/18 13:16:31;;;;;;;1.10;0.40;;;13.50;99.90;;;;;;5152167;27;20186;-89
2023/08/18 13:21:58;;;;;;;0.65;0.45;;;13.60;99.90;;;;;;5146453;27;20252;-89
2023/08/18 13:24:40;;;;;;;1.25;0.50;;;13.60;99.70;;;;;;5134151;28;20194;-89